Time;durP1;ratioP1;P1;durP2;ratioP2;P2;SDS_P1;SDS_P2;PMS_P1;PMS_P2;Temp;Humidity;BMP_temperature;BMP_pressure;BME280_temperature;BME280_humidity;BME280_pressure;Samples;Min_cycle;Max_cycle;Signal;HPM_P1;HPM_P2
2021/11/04 00:00:19;;;;;;;;;;;;;;;5.71;53.40;94017.66;5005605;28;19921;-59
2021/11/04 00:02:44;;;;;;;;;;;;;;;5.67;53.06;94024.31;5005563;28;20349;-59
2021/11/04 00:05:10;;;;;;;;;;;;;;;5.40;53.53;94016.09;5005365;28;19996;-60
2021/11/04 00:07:35;;;;;;;;;;;;;;;5.39;53.89;94025.00;5005351;28;19918;-60
2021/11/04 00:10:01;;;;;;;;;;;;;;;5.47;53.90;94024.91;5005444;28;20484;-60
2021/11/04 00:12:26;;;;;;;;;;;;;;;5.43;53.93;94028.09;5005156;28;20030;-59
2021/11/04 00:14:51;;;;;;;;;;;;;;;5.32;54.26;94026.75;5004666;28;19917;-59
2021/11/04 00:17:17;;;;;;;;;;;;;;;5.41;53.94;94025.63;5005209;28;20486;-58
2021/11/04 00:19:42;;;;;;;;;;;;;;;5.16;54.27;94027.75;4998072;28;19937;-59
2021/11/04 00:22:08;;;;;;;;;;;;;;;5.02;54.33;94034.66;5005175;28;19920;-60
2021/11/04 00:24:33;;;;;;;;;;;;;;;4.73;55.04;94034.44;5003461;28;19925;-60
2021/11/04 00:26:58;;;;;;;;;;;;;;;4.75;55.40;94032.47;5004924;28;19932;-58
2021/11/04 00:29:23;;;;;;;;;;;;;;;4.32;57.11;94040.94;5005480;28;19924;-59
2021/11/04 00:31:49;;;;;;;;;;;;;;;4.13;56.87;94037.78;5005135;28;19968;-61
2021/11/04 00:34:14;;;;;;;;;;;;;;;3.77;59.06;94027.81;4991668;28;20314;-59
2021/11/04 00:36:39;;;;;;;;;;;;;;;3.77;58.46;94025.19;5005077;28;19957;-58
2021/11/04 00:39:05;;;;;;;;;;;;;;;4.31;56.85;94024.28;5004869;28;19918;-60
2021/11/04 00:41:30;;;;;;;;;;;;;;;4.25;57.24;94016.28;5004996;28;19922;-58
2021/11/04 00:43:57;;;;;;;;;;;;;;;4.50;56.57;94008.16;5004511;28;19943;-59
2021/11/04 00:46:22;;;;;;;;;;;;;;;3.95;58.93;94006.47;5004635;28;19961;-58
2021/11/04 00:48:47;;;;;;;;;;;;;;;3.88;58.77;94003.72;5004643;28;20464;-58
2021/11/04 00:51:12;;;;;;;;;;;;;;;3.97;58.10;94004.47;5004893;28;19928;-59
2021/11/04 00:53:38;;;;;;;;;;;;;;;3.74;60.37;94005.28;5004643;28;20034;-59
2021/11/04 00:56:03;;;;;;;;;;;;;;;3.59;61.37;93997.34;5004572;28;20385;-60
2021/11/04 00:58:28;;;;;;;;;;;;;;;3.40;60.99;93994.13;5002789;28;20303;-55
2021/11/04 01:00:54;;;;;;;;;;;;;;;3.22;61.19;93986.50;5004471;28;19953;-60
2021/11/04 01:03:19;;;;;;;;;;;;;;;2.98;61.55;93987.41;5006344;28;19925;-54
2021/11/04 01:05:44;;;;;;;;;;;;;;;2.62;63.04;93983.44;5008616;28;20294;-55
2021/11/04 01:08:09;;;;;;;;;;;;;;;2.65;62.97;93983.09;5008385;28;19944;-56
2021/11/04 01:10:35;;;;;;;;;;;;;;;2.59;63.14;93984.56;5008366;28;19917;-59
2021/11/04 01:13:00;;;;;;;;;;;;;;;2.50;64.01;93977.72;5008497;28;20477;-58
2021/11/04 01:15:25;;;;;;;;;;;;;;;2.75;63.28;93980.25;5008243;28;19925;-57
2021/11/04 01:17:50;;;;;;;;;;;;;;;2.89;63.07;93970.84;5006415;28;20341;-60
2021/11/04 01:20:16;;;;;;;;;;;;;;;3.06;61.61;93974.22;5010112;28;20439;-58
2021/11/04 01:22:41;;;;;;;;;;;;;;;3.03;62.06;93972.75;5004243;28;19980;-58
2021/11/04 01:25:07;;;;;;;;;;;;;;;3.08;62.40;93967.00;4988752;28;19918;-60
2021/11/04 01:27:32;;;;;;;;;;;;;;;3.34;60.89;93979.03;4999759;28;19957;-57
2021/11/04 01:29:57;;;;;;;;;;;;;;;3.46;60.03;93986.53;5008339;28;19918;-59
2021/11/04 01:32:23;;;;;;;;;;;;;;;3.87;58.89;93988.09;5007872;28;20386;-61
2021/11/04 01:34:48;;;;;;;;;;;;;;;4.17;59.06;93993.47;5008048;28;19921;-58
2021/11/04 01:37:13;;;;;;;;;;;;;;;4.36;56.50;93993.97;5008121;28;19969;-58
2021/11/04 01:39:38;;;;;;;;;;;;;;;4.58;56.92;93986.97;5006869;28;19917;-59
2021/11/04 01:42:04;;;;;;;;;;;;;;;4.58;57.46;93984.34;5008201;28;19925;-59
2021/11/04 01:44:29;;;;;;;;;;;;;;;4.60;57.33;93977.09;5008051;28;20417;-59
2021/11/04 01:46:54;;;;;;;;;;;;;;;4.42;57.44;93970.34;5007682;28;19917;-58
2021/11/04 01:49:19;;;;;;;;;;;;;;;4.09;58.74;93968.03;5007934;28;19944;-59
2021/11/04 01:51:45;;;;;;;;;;;;;;;4.10;59.36;93963.56;5007725;28;19922;-58
2021/11/04 01:54:10;;;;;;;;;;;;;;;3.98;58.57;93958.72;5008161;28;20036;-58
2021/11/04 01:56:38;;;;;;;;;;;;;;;3.88;58.77;93953.69;5007876;28;19917;-58
2021/11/04 01:59:04;;;;;;;;;;;;;;;3.88;59.78;93963.41;5007811;28;20385;-58
2021/11/04 02:01:29;;;;;;;;;;;;;;;3.73;59.87;93963.34;5007806;28;19922;-60
2021/11/04 02:04:04;;;;;;;;;;;;;;;3.74;58.79;93975.53;5006009;28;19921;-59
2021/11/04 02:06:34;;;;;;;;;;;;;;;3.74;58.80;93984.22;4999535;28;20012;-58
2021/11/04 02:08:59;;;;;;;;;;;;;;;3.45;60.84;93990.19;5006229;28;19921;-58
2021/11/04 02:11:26;;;;;;;;;;;;;;;3.84;58.42;93984.00;5006649;28;19968;-58
2021/11/04 02:13:58;;;;;;;;;;;;;;;3.88;59.70;93989.75;5006314;28;19925;-59
2021/11/04 02:16:23;;;;;;;;;;;;;;;4.03;58.15;93993.25;5009935;28;19979;-59
2021/11/04 02:18:48;;;;;;;;;;;;;;;4.33;57.41;94001.22;5004235;28;19961;-60
2021/11/04 02:21:25;;;;;;;;;;;;;;;4.53;56.19;94003.34;5003541;28;20161;-58
2021/11/04 02:23:52;;;;;;;;;;;;;;;3.93;59.00;94004.03;5007149;28;19925;-60
2021/11/04 02:26:19;;;;;;;;;;;;;;;3.84;58.73;94002.44;5006912;28;19917;-59
2021/11/04 02:28:44;;;;;;;;;;;;;;;4.23;58.38;94005.09;5007083;28;20009;-57
2021/11/04 02:31:09;;;;;;;;;;;;;;;4.47;56.55;94009.34;5007098;28;20028;-59
2021/11/04 02:33:35;;;;;;;;;;;;;;;4.02;58.17;94007.41;5006164;28;19928;-59
2021/11/04 02:36:00;;;;;;;;;;;;;;;4.21;58.86;94009.75;5005429;28;19917;-61
2021/11/04 02:38:27;;;;;;;;;;;;;;;4.24;58.64;94009.38;5005412;28;19913;-59
2021/11/04 02:40:53;;;;;;;;;;;;;;;3.93;58.84;94005.81;5007060;28;19909;-60
2021/11/04 02:43:18;;;;;;;;;;;;;;;3.90;58.22;94001.75;5005255;28;20267;-58
2021/11/04 02:45:43;;;;;;;;;;;;;;;4.01;58.25;94004.97;5022156;28;19924;-59
2021/11/04 02:48:09;;;;;;;;;;;;;;;4.18;59.35;94001.19;5006737;28;19943;-60
2021/11/04 02:50:34;;;;;;;;;;;;;;;4.12;58.27;94001.09;5006500;28;19949;-58
2021/11/04 02:52:59;;;;;;;;;;;;;;;4.51;56.89;94005.34;5006785;28;19922;-57
2021/11/04 02:55:32;;;;;;;;;;;;;;;4.50;57.62;93995.81;5005017;28;20210;-60
2021/11/04 02:57:57;;;;;;;;;;;;;;;4.65;57.51;93994.97;5007176;28;20397;-60
2021/11/04 03:00:22;;;;;;;;;;;;;;;4.51;56.73;93991.34;5006569;28;19921;-60
2021/11/04 03:02:48;;;;;;;;;;;;;;;4.07;57.92;93993.69;5006243;28;20595;-59
2021/11/04 03:05:13;;;;;;;;;;;;;;;4.04;58.35;93989.63;5003849;28;20016;-59
2021/11/04 03:07:38;;;;;;;;;;;;;;;3.87;60.39;93985.47;5001026;28;19924;-60
2021/11/04 03:10:03;;;;;;;;;;;;;;;4.45;58.18;93985.78;5006572;28;19984;-58
2021/11/04 03:12:29;;;;;;;;;;;;;;;4.50;58.15;93992.34;5006029;28;19922;-59
2021/11/04 03:14:54;;;;;;;;;;;;;;;4.29;60.45;93986.75;5005963;28;19921;-59
2021/11/04 03:17:19;;;;;;;;;;;;;;;4.65;56.72;93985.25;5006874;28;19917;-59
2021/11/04 03:19:45;;;;;;;;;;;;;;;4.67;56.35;93985.09;4997419;28;19925;-59
2021/11/04 03:22:10;;;;;;;;;;;;;;;3.93;58.50;93988.22;5005849;28;20577;-61
2021/11/04 03:24:35;;;;;;;;;;;;;;;3.74;59.88;93983.44;5004568;28;19917;-59
2021/11/04 03:27:02;;;;;;;;;;;;;;;3.51;59.42;93990.28;5004090;28;20028;-59
2021/11/04 03:29:28;;;;;;;;;;;;;;;3.13;60.26;93985.69;5005949;28;20392;-60
2021/11/04 03:31:54;;;;;;;;;;;;;;;2.73;61.70;93992.75;5004513;28;20439;-58
2021/11/04 03:34:19;;;;;;;;;;;;;;;2.31;62.99;93999.91;5005977;28;19933;-57
2021/11/04 03:36:45;;;;;;;;;;;;;;;2.09;64.46;94010.09;5005723;28;19915;-55
2021/11/04 03:39:10;;;;;;;;;;;;;;;1.93;65.42;94018.78;5004156;28;20304;-56
2021/11/04 03:41:35;;;;;;;;;;;;;;;1.66;66.65;94020.75;5005514;28;19920;-55
2021/11/04 03:44:01;;;;;;;;;;;;;;;1.71;66.41;94021.06;5005854;28;20122;-53
2021/11/04 03:46:26;;;;;;;;;;;;;;;1.45;66.64;94027.22;5003941;28;19960;-55
2021/11/04 03:48:52;;;;;;;;;;;;;;;1.59;66.22;94031.88;5004517;28;19918;-56
2021/11/04 03:51:18;;;;;;;;;;;;;;;1.44;66.54;94030.81;5005235;28;19928;-54
2021/11/04 03:53:43;;;;;;;;;;;;;;;1.37;67.58;94041.13;5004476;28;20361;-56
2021/11/04 03:56:08;;;;;;;;;;;;;;;1.40;67.66;94045.25;5003692;28;19963;-59
2021/11/04 03:58:34;;;;;;;;;;;;;;;1.46;67.20;94044.59;5005307;28;20373;-56
2021/11/04 04:00:59;;;;;;;;;;;;;;;1.32;67.61;94044.22;5005316;28;19918;-57
2021/11/04 04:03:24;;;;;;;;;;;;;;;1.36;67.30;94050.78;5003837;28;19983;-57
2021/11/04 04:06:00;;;;;;;;;;;;;;;1.69;68.53;94050.09;5003800;28;20020;-57
2021/11/04 04:08:25;;;;;;;;;;;;;;;2.21;64.48;94052.63;4993191;28;19921;-57
2021/11/04 04:10:50;;;;;;;;;;;;;;;2.08;66.99;94060.97;5004423;28;20016;-58
2021/11/04 04:13:15;;;;;;;;;;;;;;;1.98;64.75;94061.13;5005417;28;19921;-57
2021/11/04 04:15:41;;;;;;;;;;;;;;;2.16;65.23;94066.22;5004785;28;19967;-58
2021/11/04 04:18:06;;;;;;;;;;;;;;;2.29;64.10;94063.13;5005402;28;20008;-59
2021/11/04 04:20:31;;;;;;;;;;;;;;;2.38;64.07;94069.16;5003453;28;19929;-58
2021/11/04 04:22:56;;;;;;;;;;;;;;;2.37;63.66;94072.78;5004995;28;19980;-57
2021/11/04 04:25:22;;;;;;;;;;;;;;;2.58;62.83;94071.47;5005154;28;20290;-58
2021/11/04 04:27:47;;;;;;;;;;;;;;;2.83;62.01;94077.50;5004904;28;19941;-58
2021/11/04 04:30:12;;;;;;;;;;;;;;;2.43;62.58;94081.81;5005045;28;19921;-58
2021/11/04 04:32:37;;;;;;;;;;;;;;;2.26;63.86;94076.56;5004999;28;19933;-57
2021/11/04 04:35:03;;;;;;;;;;;;;;;2.19;64.18;94081.66;5004618;28;20298;-57
2021/11/04 04:37:28;;;;;;;;;;;;;;;2.09;64.00;94075.75;5004185;28;20033;-58
2021/11/04 04:39:53;;;;;;;;;;;;;;;1.92;64.89;94067.03;5004678;28;19928;-58
2021/11/04 04:42:19;;;;;;;;;;;;;;;1.44;66.33;94073.63;5004696;28;20416;-58
2021/11/04 04:44:44;;;;;;;;;;;;;;;1.59;66.17;94080.88;4991259;28;20367;-57
2021/11/04 04:47:09;;;;;;;;;;;;;;;1.11;67.25;94082.19;5003335;28;19926;-60
2021/11/04 04:49:34;;;;;;;;;;;;;;;0.80;67.91;94081.84;5004848;28;19914;-57
2021/11/04 04:52:00;;;;;;;;;;;;;;;0.74;68.89;94075.41;5004534;28;20009;-58
2021/11/04 04:54:26;;;;;;;;;;;;;;;1.00;70.03;94079.81;5004221;28;20413;-58
2021/11/04 04:56:51;;;;;;;;;;;;;;;0.95;68.31;94072.41;5005328;28;19920;-59
2021/11/04 04:59:16;;;;;;;;;;;;;;;1.27;67.34;94061.41;5004324;28;20008;-56
2021/11/04 05:01:42;;;;;;;;;;;;;;;1.70;66.10;94061.41;5007538;28;20370;-57
2021/11/04 05:04:07;;;;;;;;;;;;;;;1.94;66.61;94062.44;5004363;28;19996;-59
2021/11/04 05:06:32;;;;;;;;;;;;;;;1.91;65.38;94058.34;4998250;28;19960;-57
2021/11/04 05:08:58;;;;;;;;;;;;;;;1.46;66.13;94065.56;5004949;28;19917;-57
2021/11/04 05:11:23;;;;;;;;;;;;;;;1.90;64.17;94055.88;5004287;28;19921;-59
2021/11/04 05:13:48;;;;;;;;;;;;;;;1.66;66.22;94060.09;5004630;28;19918;-58
2021/11/04 05:16:13;;;;;;;;;;;;;;;1.64;66.25;94051.56;5004361;28;19925;-57
2021/11/04 05:18:38;;;;;;;;;;;;;;;1.07;66.92;94062.50;5002763;28;20649;-58
2021/11/04 05:21:04;;;;;;;;;;;;;;;1.15;66.82;94045.97;5004286;28;20218;-56
2021/11/04 05:23:29;;;;;;;;;;;;;;;0.94;68.71;94054.22;5003902;28;19964;-57
2021/11/04 05:25:54;;;;;;;;;;;;;;;0.96;69.55;94052.28;5004409;28;19957;-59
2021/11/04 05:28:20;;;;;;;;;;;;;;;0.72;68.30;94059.03;5003815;28;20000;-57
2021/11/04 05:30:45;;;;;;;;;;;;;;;0.88;68.09;94062.72;5004045;28;20122;-59
2021/11/04 05:33:10;;;;;;;;;;;;;;;1.08;67.15;94058.88;5004316;28;20020;-57
2021/11/04 05:35:35;;;;;;;;;;;;;;;1.07;67.64;94056.41;5004243;28;19925;-58
2021/11/04 05:38:01;;;;;;;;;;;;;;;0.76;69.23;94063.00;5004638;28;20228;-58
2021/11/04 05:40:26;;;;;;;;;;;;;;;1.16;69.57;94054.66;5003545;28;20407;-59
2021/11/04 05:42:51;;;;;;;;;;;;;;;1.20;67.95;94056.00;5002284;28;19922;-57
2021/11/04 05:45:17;;;;;;;;;;;;;;;0.81;67.04;94057.28;5004311;28;19918;-57
2021/11/04 05:47:42;;;;;;;;;;;;;;;0.57;68.58;94051.75;5004331;28;20012;-57
2021/11/04 05:50:07;;;;;;;;;;;;;;;0.18;69.60;94052.94;5006671;28;19990;-56
2021/11/04 05:52:33;;;;;;;;;;;;;;;0.10;70.89;94054.69;5005925;28;19938;-57
2021/11/04 05:54:58;;;;;;;;;;;;;;;0.24;69.25;94059.34;5007203;28;19956;-57
2021/11/04 05:57:24;;;;;;;;;;;;;;;0.11;71.14;94056.31;5007743;28;19917;-57
2021/11/04 05:59:49;;;;;;;;;;;;;;;0.10;70.51;94054.69;5007435;28;20005;-57
2021/11/04 06:02:14;;;;;;;;;;;;;;;-0.01;73.34;94048.69;5007169;28;19924;-57
2021/11/04 06:04:44;;;;;;;;;;;;;;;0.14;70.29;94056.84;5007366;28;20448;-56
2021/11/04 06:07:09;;;;;;;;;;;;;;;0.20;70.03;94055.41;5001105;28;20332;-56
2021/11/04 06:09:35;;;;;;;;;;;;;;;0.28;69.18;94047.59;5007692;28;20008;-58
2021/11/04 06:12:00;;;;;;;;;;;;;;;0.22;70.06;94050.84;5005386;28;20433;-57
2021/11/04 06:14:25;;;;;;;;;;;;;;;0.05;71.40;94053.34;5006849;28;20023;-57
2021/11/04 06:16:51;;;;;;;;;;;;;;;-0.10;71.07;94060.88;5007597;28;19922;-57
2021/11/04 06:19:17;;;;;;;;;;;;;;;0.00;71.15;94060.81;5005605;28;19929;-57
2021/11/04 06:21:42;;;;;;;;;;;;;;;0.06;71.36;94065.44;5007388;28;19917;-57
2021/11/04 06:24:07;;;;;;;;;;;;;;;-0.61;73.15;94068.41;5006768;28;19918;-57
2021/11/04 06:26:32;;;;;;;;;;;;;;;-0.49;72.44;94075.06;5006526;28;19944;-57
2021/11/04 06:28:58;;;;;;;;;;;;;;;-0.53;72.61;94072.88;5006940;28;20353;-59
2021/11/04 06:31:23;;;;;;;;;;;;;;;-0.66;73.52;94075.84;5006033;28;19926;-57
2021/11/04 06:33:48;;;;;;;;;;;;;;;-0.52;73.77;94077.97;5006962;28;19925;-56
2021/11/04 06:36:13;;;;;;;;;;;;;;;-0.64;72.71;94079.16;5006621;28;20024;-56
2021/11/04 06:38:39;;;;;;;;;;;;;;;-0.63;73.35;94080.78;5005890;28;20453;-57
2021/11/04 06:41:04;;;;;;;;;;;;;;;-0.43;72.55;94086.75;5002224;28;20412;-57
2021/11/04 06:43:29;;;;;;;;;;;;;;;-0.46;72.41;94087.03;5003537;28;19932;-57
2021/11/04 06:45:55;;;;;;;;;;;;;;;-0.55;73.20;94093.16;5002626;28;19936;-55
2021/11/04 06:48:25;;;;;;;;;;;;;;;-0.52;72.94;94096.28;5000487;28;20590;-58
2021/11/04 06:50:51;;;;;;;;;;;;;;;-0.11;72.24;94100.28;5000107;28;20331;-57
2021/11/04 06:53:17;;;;;;;;;;;;;;;0.12;71.10;94105.06;5016388;28;19926;-57
2021/11/04 06:55:43;;;;;;;;;;;;;;;0.18;72.22;94107.09;5016071;28;19925;-56
2021/11/04 06:58:14;;;;;;;;;;;;;;;-0.07;71.69;94109.47;5016414;28;20388;-58
2021/11/04 07:00:39;;;;;;;;;;;;;;;-0.29;72.16;94113.34;4999500;28;19929;-58
2021/11/04 07:03:10;;;;;;;;;;;;;;;-0.44;73.01;94119.91;5001049;28;19933;-57
2021/11/04 07:05:36;;;;;;;;;;;;;;;-0.25;71.88;94118.16;4991141;28;19926;-57
2021/11/04 07:08:02;;;;;;;;;;;;;;;0.25;71.48;94128.25;4999696;28;19952;-57
2021/11/04 07:10:27;;;;;;;;;;;;;;;0.41;70.41;94130.19;5001180;28;20297;-57
2021/11/04 07:12:53;;;;;;;;;;;;;;;0.54;70.66;94135.84;5001907;28;20213;-58
2021/11/04 07:15:19;;;;;;;;;;;;;;;0.41;69.98;94140.69;5001322;28;19968;-57
2021/11/04 07:17:45;;;;;;;;;;;;;;;0.38;69.68;94143.59;5001363;28;19991;-58
2021/11/04 07:20:10;;;;;;;;;;;;;;;-0.08;71.75;94147.09;4992834;28;20410;-58
2021/11/04 07:22:54;;;;;;;;;;;;;;;-0.03;71.17;94151.88;4997459;28;20034;-56
2021/11/04 07:25:23;;;;;;;;;;;;;;;0.30;70.15;94160.03;5000031;28;19997;-58
2021/11/04 07:27:53;;;;;;;;;;;;;;;0.26;70.31;94162.16;5000611;28;19998;-57
2021/11/04 07:30:19;;;;;;;;;;;;;;;-0.01;71.60;94165.63;5000592;28;20044;-58
2021/11/04 07:32:49;;;;;;;;;;;;;;;-0.02;70.41;94177.91;5000023;28;20029;-58
2021/11/04 07:35:18;;;;;;;;;;;;;;;0.45;69.84;94176.06;5001345;28;19973;-58
2021/11/04 07:37:43;;;;;;;;;;;;;;;0.67;68.44;94187.03;4998536;28;20417;-57
2021/11/04 07:40:09;;;;;;;;;;;;;;;0.39;68.73;94187.13;5000433;28;19925;-59
2021/11/04 07:42:36;;;;;;;;;;;;;;;0.40;69.73;94194.00;4998940;28;20067;-57
2021/11/04 07:45:01;;;;;;;;;;;;;;;-0.05;70.98;94199.97;4999452;28;20456;-57
2021/11/04 07:47:26;;;;;;;;;;;;;;;-0.25;72.14;94204.47;4997651;28;19933;-57
2021/11/04 07:49:52;;;;;;;;;;;;;;;0.09;71.51;94208.28;5000131;28;20333;-58
2021/11/04 07:52:17;;;;;;;;;;;;;;;0.45;69.63;94218.75;5001143;28;19995;-58
2021/11/04 07:54:42;;;;;;;;;;;;;;;0.87;67.53;94219.13;5001481;28;20381;-58
2021/11/04 07:57:08;;;;;;;;;;;;;;;0.39;69.68;94215.94;5001035;28;20054;-58
2021/11/04 07:59:33;;;;;;;;;;;;;;;0.24;71.96;94221.66;4999254;28;20401;-57
2021/11/04 08:02:00;;;;;;;;;;;;;;;-0.02;73.62;94230.25;5000113;28;19926;-59
2021/11/04 08:04:26;;;;;;;;;;;;;;;-0.36;72.75;94242.09;4999463;28;20095;-57
2021/11/04 08:06:52;;;;;;;;;;;;;;;-0.01;71.30;94237.13;4999793;28;20548;-57
2021/11/04 08:09:17;;;;;;;;;;;;;;;-0.16;72.40;94249.88;5001022;28;20017;-56
2021/11/04 08:11:42;;;;;;;;;;;;;;;-0.64;73.90;94242.03;5000330;28;19963;-57
2021/11/04 08:14:07;;;;;;;;;;;;;;;-0.28;72.06;94249.22;4999905;28;20464;-60
2021/11/04 08:16:33;;;;;;;;;;;;;;;0.02;70.71;94246.47;4999590;28;19925;-56
2021/11/04 08:18:58;;;;;;;;;;;;;;;-0.12;71.54;94247.78;4999974;28;20020;-57
2021/11/04 08:21:23;;;;;;;;;;;;;;;-0.28;72.07;94256.22;5001514;28;20254;-57
2021/11/04 08:23:48;;;;;;;;;;;;;;;0.08;69.72;94253.75;5000204;28;20604;-59
2021/11/04 08:26:15;;;;;;;;;;;;;;;0.33;69.58;94254.84;4999401;28;20000;-58
2021/11/04 08:28:40;;;;;;;;;;;;;;;-0.03;69.82;94264.41;4995504;28;19973;-57
2021/11/04 08:31:06;;;;;;;;;;;;;;;-0.03;71.26;94270.44;4999280;28;19981;-58
2021/11/04 08:33:31;;;;;;;;;;;;;;;0.56;68.75;94269.28;4998415;28;20398;-57
2021/11/04 08:35:56;;;;;;;;;;;;;;;0.77;67.00;94271.63;4999614;28;19998;-59
2021/11/04 08:38:21;;;;;;;;;;;;;;;0.46;68.48;94275.44;4999574;28;20212;-60
2021/11/04 08:40:47;;;;;;;;;;;;;;;0.35;68.66;94286.13;4998556;28;19917;-58
2021/11/04 08:43:12;;;;;;;;;;;;;;;-0.13;69.91;94282.75;5000316;28;19936;-58
2021/11/04 08:45:37;;;;;;;;;;;;;;;-0.19;70.50;94290.19;4999618;28;20071;-57
2021/11/04 08:48:03;;;;;;;;;;;;;;;-0.11;70.06;94292.13;4998464;28;19925;-59
2021/11/04 08:50:28;;;;;;;;;;;;;;;-0.25;71.61;94295.19;4999707;28;19952;-58
2021/11/04 08:52:53;;;;;;;;;;;;;;;-0.36;71.59;94296.19;5000553;28;20012;-57
2021/11/04 08:55:19;;;;;;;;;;;;;;;0.27;70.39;94292.06;5004339;28;19984;-57
2021/11/04 08:57:44;;;;;;;;;;;;;;;-0.01;69.83;94289.47;5000513;28;20376;-59
2021/11/04 09:00:09;;;;;;;;;;;;;;;-0.11;71.40;94294.72;4998987;28;19998;-58
2021/11/04 09:02:35;;;;;;;;;;;;;;;-0.23;70.01;94309.78;4999769;28;19932;-59
2021/11/04 09:05:02;;;;;;;;;;;;;;;-0.37;71.32;94305.03;4999590;28;20007;-58
2021/11/04 09:07:27;;;;;;;;;;;;;;;-0.21;70.09;94302.63;5000513;28;19921;-59
2021/11/04 09:09:53;;;;;;;;;;;;;;;-0.19;70.20;94305.09;4997807;28;20072;-59
2021/11/04 09:12:18;;;;;;;;;;;;;;;-0.23;70.81;94306.34;4999862;28;20310;-59
2021/11/04 09:14:43;;;;;;;;;;;;;;;-0.10;69.65;94300.81;4998112;28;20002;-58
2021/11/04 09:17:10;;;;;;;;;;;;;;;0.16;69.19;94315.81;4998507;28;19948;-57
2021/11/04 09:19:35;;;;;;;;;;;;;;;0.23;68.92;94316.91;4997865;28;20361;-57
2021/11/04 09:22:00;;;;;;;;;;;;;;;-0.28;71.58;94309.38;5000210;28;19984;-59
2021/11/04 09:24:26;;;;;;;;;;;;;;;-0.06;70.21;94312.63;5017898;28;19960;-59
2021/11/04 09:26:52;;;;;;;;;;;;;;;0.05;70.48;94316.84;5001475;28;20755;-59
2021/11/04 09:29:17;;;;;;;;;;;;;;;-0.50;74.22;94314.00;5003619;28;19925;-59
2021/11/04 09:31:42;;;;;;;;;;;;;;;-0.58;73.44;94322.53;5003894;28;20003;-58
2021/11/04 09:34:07;;;;;;;;;;;;;;;-0.65;72.29;94320.63;5004321;28;19936;-57
2021/11/04 09:36:33;;;;;;;;;;;;;;;-0.82;73.31;94322.97;5002594;28;20286;-58
2021/11/04 09:38:59;;;;;;;;;;;;;;;-0.40;71.48;94321.00;5002923;28;19925;-57
2021/11/04 09:41:24;;;;;;;;;;;;;;;-0.48;72.03;94319.91;5002563;28;20881;-59
2021/11/04 09:43:49;;;;;;;;;;;;;;;-0.86;73.15;94318.97;5001951;28;19925;-59
2021/11/04 09:46:15;;;;;;;;;;;;;;;-1.08;74.09;94323.53;5003571;28;19925;-57
2021/11/04 09:48:40;;;;;;;;;;;;;;;-1.35;75.38;94323.19;5003589;28;19960;-57
2021/11/04 09:51:05;;;;;;;;;;;;;;;-0.82;73.62;94325.59;5004333;28;20008;-59
2021/11/04 09:53:31;;;;;;;;;;;;;;;-0.58;72.67;94326.94;5001848;28;20064;-58
2021/11/04 09:55:57;;;;;;;;;;;;;;;-0.83;73.16;94337.84;5002242;28;19925;-56
2021/11/04 09:58:22;;;;;;;;;;;;;;;-0.50;72.09;94327.06;5011644;28;20416;-58
2021/11/04 10:00:48;;;;;;;;;;;;;;;-0.68;73.45;94340.00;5003100;28;19969;-57
2021/11/04 10:03:14;;;;;;;;;;;;;;;-0.27;71.55;94339.00;5002991;28;20303;-59
2021/11/04 10:05:40;;;;;;;;;;;;;;;-0.08;71.50;94331.09;4999986;28;19964;-60
2021/11/04 10:08:06;;;;;;;;;;;;;;;0.14;70.30;94339.53;5008521;28;20016;-57
2021/11/04 10:10:31;;;;;;;;;;;;;;;0.05;69.49;94336.00;5005759;28;20383;-57
2021/11/04 10:12:58;;;;;;;;;;;;;;;-0.29;70.73;94344.38;5005713;28;19933;-57
2021/11/04 10:15:23;;;;;;;;;;;;;;;-0.25;70.27;94340.50;5009311;28;19933;-60
2021/11/04 10:17:48;;;;;;;;;;;;;;;-0.29;71.37;94341.75;5002906;28;20856;-60
2021/11/04 10:20:15;;;;;;;;;;;;;;;-0.79;72.05;94348.84;4994479;28;19930;-58
2021/11/04 10:22:40;;;;;;;;;;;;;;;-1.06;72.66;94349.50;5007393;28;20009;-59
2021/11/04 10:25:06;;;;;;;;;;;;;;;-0.68;73.85;94355.69;5001280;28;19953;-58
2021/11/04 10:27:32;;;;;;;;;;;;;;;-0.77;72.31;94352.16;5017100;28;19929;-59
2021/11/04 10:29:57;;;;;;;;;;;;;;;-0.88;72.92;94354.91;5002596;28;19997;-58
2021/11/04 10:32:33;;;;;;;;;;;;;;;-0.76;71.64;94359.03;5000604;28;20400;-58
2021/11/04 10:35:05;;;;;;;;;;;;;;;-0.48;71.97;94353.91;5000773;28;19999;-75
2021/11/04 10:37:31;;;;;;;;;;;;;;;0.14;70.59;94357.84;5001643;28;20396;-74
2021/11/04 10:40:03;;;;;;;;;;;;;;;0.49;69.83;94358.13;5001401;28;20002;-76
2021/11/04 10:42:28;;;;;;;;;;;;;;;0.49;68.86;94363.34;5001254;28;19953;-76
2021/11/04 10:44:54;;;;;;;;;;;;;;;0.77;67.28;94358.09;5002543;28;19929;-75
2021/11/04 10:47:19;;;;;;;;;;;;;;;0.89;64.99;94368.38;5002448;28;19925;-76
2021/11/04 10:49:46;;;;;;;;;;;;;;;0.68;66.52;94366.84;5001170;28;20307;-75
2021/11/04 10:52:12;;;;;;;;;;;;;;;0.67;66.29;94367.78;5002615;28;20186;-76
2021/11/04 10:54:41;;;;;;;;;;;;;;;0.66;65.54;94372.22;5000317;28;19929;-76
2021/11/04 10:57:06;;;;;;;;;;;;;;;0.53;65.16;94377.81;5001123;28;19984;-76
2021/11/04 10:59:38;;;;;;;;;;;;;;;0.83;64.63;94377.63;5000052;28;19930;-75
2021/11/04 11:02:04;;;;;;;;;;;;;;;0.70;65.44;94376.19;5000936;28;20391;-75
2021/11/04 11:04:33;;;;;;;;;;;;;;;0.49;64.96;94378.22;4993427;28;20033;-74
2021/11/04 11:06:58;;;;;;;;;;;;;;;0.77;63.80;94375.59;5006232;28;20002;-75
2021/11/04 11:09:24;;;;;;;;;;;;;;;0.59;64.78;94385.06;5001917;28;19994;-75
2021/11/04 11:11:50;;;;;;;;;;;;;;;0.76;64.26;94387.06;5001044;28;19925;-74
2021/11/04 11:14:18;;;;;;;;;;;;;;;0.87;64.72;94396.50;5000328;28;20016;-75
2021/11/04 11:16:47;;;;;;;;;;;;;;;0.57;64.97;94394.88;5002083;28;20068;-74
2021/11/04 11:19:17;;;;;;;;;;;;;;;0.63;64.56;94403.13;4983900;28;19929;-75
2021/11/04 11:21:42;;;;;;;;;;;;;;;1.05;63.65;94399.13;5000633;28;19981;-75
2021/11/04 11:24:12;;;;;;;;;;;;;;;1.21;63.89;94398.47;4999873;28;19929;-76
2021/11/04 11:26:37;;;;;;;;;;;;;;;0.87;64.17;94404.34;5000053;28;19921;-75
2021/11/04 11:29:03;;;;;;;;;;;;;;;0.59;65.11;94408.63;5001876;28;20413;-75
2021/11/04 11:31:29;;;;;;;;;;;;;;;0.46;66.37;94400.31;4999852;28;20285;-76
2021/11/04 11:34:08;;;;;;;;;;;;;;;0.69;65.31;94410.41;4999528;28;19929;-75
2021/11/04 11:36:33;;;;;;;;;;;;;;;1.08;64.27;94418.03;5000682;28;20394;-75
2021/11/04 11:38:59;;;;;;;;;;;;;;;0.80;66.22;94407.59;4999909;28;19925;-76
2021/11/04 11:41:25;;;;;;;;;;;;;;;1.50;63.25;94408.75;5016284;28;19972;-75
2021/11/04 11:43:59;;;;;;;;;;;;;;;1.06;64.22;94413.91;5000008;28;19976;-75
2021/11/04 11:46:25;;;;;;;;;;;;;;;1.56;62.82;94409.97;4982433;28;20146;-75
2021/11/04 11:49:08;;;;;;;;;;;;;;;1.71;61.84;94405.00;5007253;28;19960;-77
2021/11/04 11:51:38;;;;;;;;;;;;;;;1.49;63.68;94406.25;5012900;28;20016;-75
2021/11/04 11:54:03;;;;;;;;;;;;;;;1.61;62.57;94412.16;5016905;28;19973;-77
2021/11/04 11:56:30;;;;;;;;;;;;;;;1.45;62.65;94404.91;4999585;28;19967;-76
2021/11/04 11:59:14;;;;;;;;;;;;;;;1.59;63.02;94414.91;4999444;28;19926;-76
2021/11/04 12:01:46;;;;;;;;;;;;;;;1.35;64.25;94416.31;5001679;28;19918;-75
2021/11/04 12:04:24;;;;;;;;;;;;;;;1.91;62.22;94414.50;4999723;28;19921;-75
2021/11/04 12:06:49;;;;;;;;;;;;;;;0.99;65.38;94421.56;4999223;28;19926;-76
2021/11/04 12:09:34;;;;;;;;;;;;;;;0.71;65.57;94427.63;5007290;28;19932;-74
2021/11/04 12:11:59;;;;;;;;;;;;;;;1.07;65.15;94419.00;5000907;28;19969;-77
2021/11/04 12:14:24;;;;;;;;;;;;;;;1.29;65.20;94416.91;5000979;28;19929;-75
2021/11/04 12:16:59;;;;;;;;;;;;;;;0.82;65.06;94439.69;5007756;28;19975;-75
2021/11/04 12:19:33;;;;;;;;;;;;;;;1.03;64.72;94428.16;4999343;28;19930;-75
2021/11/04 12:21:59;;;;;;;;;;;;;;;0.94;66.24;94429.00;5015816;28;20227;-76
2021/11/04 12:24:26;;;;;;;;;;;;;;;1.34;64.88;94435.66;4998241;28;20349;-75
2021/11/04 12:26:51;;;;;;;;;;;;;;;1.39;64.51;94437.00;5000300;28;19929;-76
2021/11/04 12:29:22;;;;;;;;;;;;;;;1.41;64.10;94446.38;4982986;28;19921;-75
2021/11/04 12:31:49;;;;;;;;;;;;;;;1.96;62.39;94443.72;4999152;28;20318;-75
2021/11/04 12:34:20;;;;;;;;;;;;;;;2.25;61.17;94442.63;4999070;28;20013;-76
2021/11/04 12:36:45;;;;;;;;;;;;;;;2.06;62.09;94448.88;5000614;28;20734;-74
2021/11/04 12:39:21;;;;;;;;;;;;;;;1.91;62.42;94453.88;4998899;28;19921;-74
2021/11/04 12:41:53;;;;;;;;;;;;;;;2.03;63.11;94450.03;4999014;28;19917;-75
2021/11/04 12:44:22;;;;;;;;;;;;;;;2.67;60.62;94446.28;4998746;28;19922;-75
2021/11/04 12:46:48;;;;;;;;;;;;;;;2.36;60.39;94459.91;4998181;28;20037;-75
2021/11/04 12:49:13;;;;;;;;;;;;;;;2.30;60.75;94455.28;5000487;28;20189;-74